sensor_id;sensor_type;location;lat;lon;timestamp;temperature;humidity
14057;DHT22;7103;54.300;10.180;2023-07-08T00:01:19;15.70;1.00
14057;DHT22;7103;54.300;10.180;2023-07-08T00:03:46;15.50;1.00
14057;DHT22;7103;54.300;10.180;2023-07-08T00:06:22;15.50;1.00
14057;DHT22;7103;54.300;10.180;2023-07-08T00:08:49;15.40;1.00
14057;DHT22;7103;54.300;10.180;2023-07-08T00:11:17;15.40;1.00
14057;DHT22;7103;54.300;10.180;2023-07-08T00:13:44;15.40;1.00
14057;DHT22;7103;54.300;10.180;2023-07-08T00:16:17;15.40;1.00
14057;DHT22;7103;54.300;10.180;2023-07-08T00:18:46;15.40;1.00
14057;DHT22;7103;54.300;10.180;2023-07-08T00:21:15;15.40;1.00
14057;DHT22;7103;54.300;10.180;2023-07-08T00:23:50;15.30;1.00
14057;DHT22;7103;54.300;10.180;2023-07-08T00:26:24;15.30;1.00
14057;DHT22;7103;54.300;10.180;2023-07-08T00:28:52;15.30;1.00
14057;DHT22;7103;54.300;10.180;2023-07-08T00:31:20;15.20;1.00
14057;DHT22;7103;54.300;10.180;2023-07-08T00:33:51;15.30;1.00
14057;DHT22;7103;54.300;10.180;2023-07-08T00:36:19;15.30;1.00
14057;DHT22;7103;54.300;10.180;2023-07-08T00:38:46;15.20;1.00
14057;DHT22;7103;54.300;10.180;2023-07-08T00:41:18;15.10;1.00
14057;DHT22;7103;54.300;10.180;2023-07-08T00:43:52;14.90;1.00
14057;DHT22;7103;54.300;10.180;2023-07-08T00:51:37;15.00;1.00
14057;DHT22;7103;54.300;10.180;2023-07-08T00:54:17;15.00;1.00
14057;DHT22;7103;54.300;10.180;2023-07-08T00:56:47;15.00;1.00
14057;DHT22;7103;54.300;10.180;2023-07-08T00:59:28;14.90;1.00
14057;DHT22;7103;54.300;10.180;2023-07-08T01:01:58;14.80;1.00
14057;DHT22;7103;54.300;10.180;2023-07-08T01:05:18;14.80;1.00
14057;DHT22;7103;54.300;10.180;2023-07-08T01:07:20;14.80;1.00
14057;DHT22;7103;54.300;10.180;2023-07-08T01:10:03;14.70;1.00
14057;DHT22;7103;54.300;10.180;2023-07-08T01:12:35;14.70;1.00
14057;DHT22;7103;54.300;10.180;2023-07-08T01:15:05;14.80;1.00
14057;DHT22;7103;54.300;10.180;2023-07-08T01:17:33;14.80;1.00
14057;DHT22;7103;54.300;10.180;2023-07-08T01:20:00;14.80;1.00
14057;DHT22;7103;54.300;10.180;2023-07-08T01:22:36;14.80;1.00
14057;DHT22;7103;54.300;10.180;2023-07-08T01:25:04;14.80;1.00
14057;DHT22;7103;54.300;10.180;2023-07-08T01:27:35;14.70;1.00
14057;DHT22;7103;54.300;10.180;2023-07-08T01:30:04;14.70;1.00
14057;DHT22;7103;54.300;10.180;2023-07-08T01:32:34;14.70;1.00
14057;DHT22;7103;54.300;10.180;2023-07-08T01:35:03;14.60;1.00
14057;DHT22;7103;54.300;10.180;2023-07-08T01:37:46;14.60;1.00
14057;DHT22;7103;54.300;10.180;2023-07-08T01:42:59;14.60;1.00
14057;DHT22;7103;54.300;10.180;2023-07-08T01:45:29;14.60;1.00
14057;DHT22;7103;54.300;10.180;2023-07-08T01:48:02;14.60;1.00
14057;DHT22;7103;54.300;10.180;2023-07-08T01:50:31;14.60;1.00
14057;DHT22;7103;54.300;10.180;2023-07-08T01:53:00;14.50;1.00
14057;DHT22;7103;54.300;10.180;2023-07-08T01:55:29;14.60;1.00
14057;DHT22;7103;54.300;10.180;2023-07-08T01:57:57;14.50;1.00
14057;DHT22;7103;54.300;10.180;2023-07-08T02:00:24;14.50;1.00
14057;DHT22;7103;54.300;10.180;2023-07-08T02:02:51;14.40;1.00
14057;DHT22;7103;54.300;10.180;2023-07-08T02:05:18;14.30;1.00
14057;DHT22;7103;54.300;10.180;2023-07-08T02:07:45;14.20;1.00
14057;DHT22;7103;54.300;10.180;2023-07-08T02:10:12;14.20;1.00
14057;DHT22;7103;54.300;10.180;2023-07-08T02:12:39;14.20;1.00
14057;DHT22;7103;54.300;10.180;2023-07-08T02:15:07;14.20;1.00
14057;DHT22;7103;54.300;10.180;2023-07-08T02:17:35;14.20;1.00
14057;DHT22;7103;54.300;10.180;2023-07-08T02:20:02;14.20;1.00
14057;DHT22;7103;54.300;10.180;2023-07-08T02:22:29;14.20;1.00
14057;DHT22;7103;54.300;10.180;2023-07-08T02:24:56;14.20;1.00
14057;DHT22;7103;54.300;10.180;2023-07-08T02:27:23;14.10;1.00
14057;DHT22;7103;54.300;10.180;2023-07-08T02:29:50;14.10;1.00
14057;DHT22;7103;54.300;10.180;2023-07-08T02:32:17;14.10;1.00
14057;DHT22;7103;54.300;10.180;2023-07-08T02:34:44;14.10;1.00
14057;DHT22;7103;54.300;10.180;2023-07-08T02:37:11;14.00;1.00
14057;DHT22;7103;54.300;10.180;2023-07-08T02:39:39;14.00;1.00
14057;DHT22;7103;54.300;10.180;2023-07-08T02:42:06;14.00;1.00
14057;DHT22;7103;54.300;10.180;2023-07-08T02:44:32;13.90;1.00
14057;DHT22;7103;54.300;10.180;2023-07-08T02:46:59;13.90;1.00
14057;DHT22;7103;54.300;10.180;2023-07-08T02:49:27;13.90;1.00
14057;DHT22;7103;54.300;10.180;2023-07-08T02:51:54;13.90;1.00
14057;DHT22;7103;54.300;10.180;2023-07-08T02:54:20;13.90;1.00
14057;DHT22;7103;54.300;10.180;2023-07-08T02:56:47;13.80;1.00
14057;DHT22;7103;54.300;10.180;2023-07-08T02:59:14;13.80;1.00
14057;DHT22;7103;54.300;10.180;2023-07-08T03:01:41;13.80;1.00
14057;DHT22;7103;54.300;10.180;2023-07-08T03:04:10;13.80;1.00
14057;DHT22;7103;54.300;10.180;2023-07-08T03:06:41;13.70;1.00
14057;DHT22;7103;54.300;10.180;2023-07-08T03:09:09;13.70;1.00
14057;DHT22;7103;54.300;10.180;2023-07-08T03:11:36;13.80;1.00
14057;DHT22;7103;54.300;10.180;2023-07-08T03:14:03;13.80;1.00
14057;DHT22;7103;54.300;10.180;2023-07-08T03:16:30;13.80;1.00
14057;DHT22;7103;54.300;10.180;2023-07-08T03:18:57;13.70;1.00
14057;DHT22;7103;54.300;10.180;2023-07-08T03:21:24;13.70;1.00
14057;DHT22;7103;54.300;10.180;2023-07-08T03:23:52;13.70;1.00
14057;DHT22;7103;54.300;10.180;2023-07-08T03:26:21;13.80;1.00
14057;DHT22;7103;54.300;10.180;2023-07-08T03:28:49;13.80;1.00
14057;DHT22;7103;54.300;10.180;2023-07-08T03:31:16;13.80;1.00
14057;DHT22;7103;54.300;10.180;2023-07-08T03:33:43;13.80;1.00
14057;DHT22;7103;54.300;10.180;2023-07-08T03:36:16;13.90;1.00
14057;DHT22;7103;54.300;10.180;2023-07-08T03:38:55;13.80;1.00
14057;DHT22;7103;54.300;10.180;2023-07-08T03:41:23;13.90;1.00
14057;DHT22;7103;54.300;10.180;2023-07-08T03:43:50;13.90;1.00
14057;DHT22;7103;54.300;10.180;2023-07-08T03:46:19;13.90;1.00
14057;DHT22;7103;54.300;10.180;2023-07-08T03:48:47;13.90;1.00
14057;DHT22;7103;54.300;10.180;2023-07-08T03:51:21;14.00;1.00
14057;DHT22;7103;54.300;10.180;2023-07-08T03:53:49;14.00;1.00
14057;DHT22;7103;54.300;10.180;2023-07-08T03:56:16;14.10;1.00
14057;DHT22;7103;54.300;10.180;2023-07-08T03:58:43;14.10;1.00
14057;DHT22;7103;54.300;10.180;2023-07-08T04:01:14;14.20;1.00
14057;DHT22;7103;54.300;10.180;2023-07-08T04:03:43;14.20;1.00
14057;DHT22;7103;54.300;10.180;2023-07-08T04:06:10;14.20;1.00
14057;DHT22;7103;54.300;10.180;2023-07-08T04:08:37;14.30;1.00
14057;DHT22;7103;54.300;10.180;2023-07-08T04:11:04;14.30;1.00
14057;DHT22;7103;54.300;10.180;2023-07-08T04:13:32;14.40;1.00
14057;DHT22;7103;54.300;10.180;2023-07-08T04:16:02;14.40;1.00
14057;DHT22;7103;54.300;10.180;2023-07-08T04:18:29;14.50;1.00
14057;DHT22;7103;54.300;10.180;2023-07-08T04:20:56;14.50;1.00
14057;DHT22;7103;54.300;10.180;2023-07-08T04:23:26;14.50;1.00
14057;DHT22;7103;54.300;10.180;2023-07-08T04:25:55;14.60;1.00
14057;DHT22;7103;54.300;10.180;2023-07-08T04:28:23;14.70;1.00
14057;DHT22;7103;54.300;10.180;2023-07-08T04:30:50;15.20;1.00
14057;DHT22;7103;54.300;10.180;2023-07-08T04:33:17;15.80;1.00
14057;DHT22;7103;54.300;10.180;2023-07-08T04:35:45;16.30;1.00
14057;DHT22;7103;54.300;10.180;2023-07-08T04:38:20;16.70;1.00
14057;DHT22;7103;54.300;10.180;2023-07-08T04:40:49;16.90;1.00
14057;DHT22;7103;54.300;10.180;2023-07-08T04:43:16;16.70;1.00
14057;DHT22;7103;54.300;10.180;2023-07-08T04:45:46;16.40;1.00
14057;DHT22;7103;54.300;10.180;2023-07-08T04:48:14;16.20;1.00
14057;DHT22;7103;54.300;10.180;2023-07-08T04:50:43;16.00;1.00
14057;DHT22;7103;54.300;10.180;2023-07-08T04:53:11;15.90;1.00
14057;DHT22;7103;54.300;10.180;2023-07-08T04:55:43;15.70;1.00
14057;DHT22;7103;54.300;10.180;2023-07-08T04:58:11;15.60;1.00
14057;DHT22;7103;54.300;10.180;2023-07-08T05:00:38;15.60;1.00
14057;DHT22;7103;54.300;10.180;2023-07-08T05:03:04;15.80;1.00
14057;DHT22;7103;54.300;10.180;2023-07-08T05:05:31;15.90;1.00
14057;DHT22;7103;54.300;10.180;2023-07-08T05:07:59;16.00;1.00
14057;DHT22;7103;54.300;10.180;2023-07-08T05:10:27;16.10;1.00
14057;DHT22;7103;54.300;10.180;2023-07-08T05:12:54;16.10;1.00
14057;DHT22;7103;54.300;10.180;2023-07-08T05:15:21;16.10;1.00
14057;DHT22;7103;54.300;10.180;2023-07-08T05:17:50;16.30;1.00
14057;DHT22;7103;54.300;10.180;2023-07-08T05:20:18;16.50;1.00
14057;DHT22;7103;54.300;10.180;2023-07-08T05:22:46;16.50;1.00
14057;DHT22;7103;54.300;10.180;2023-07-08T05:25:13;16.60;1.00
14057;DHT22;7103;54.300;10.180;2023-07-08T05:27:41;16.70;1.00
14057;DHT22;7103;54.300;10.180;2023-07-08T05:30:12;16.80;1.00
14057;DHT22;7103;54.300;10.180;2023-07-08T05:32:39;16.80;1.00
14057;DHT22;7103;54.300;10.180;2023-07-08T05:35:07;16.90;1.00
14057;DHT22;7103;54.300;10.180;2023-07-08T05:37:37;17.10;1.00
14057;DHT22;7103;54.300;10.180;2023-07-08T05:40:04;17.30;1.00
14057;DHT22;7103;54.300;10.180;2023-07-08T05:42:31;17.70;1.00
14057;DHT22;7103;54.300;10.180;2023-07-08T05:44:58;18.50;1.00
14057;DHT22;7103;54.300;10.180;2023-07-08T05:47:26;19.30;1.00
14057;DHT22;7103;54.300;10.180;2023-07-08T05:49:53;20.20;1.00
14057;DHT22;7103;54.300;10.180;2023-07-08T05:52:20;21.00;1.00
14057;DHT22;7103;54.300;10.180;2023-07-08T05:54:47;21.60;1.00
14057;DHT22;7103;54.300;10.180;2023-07-08T05:57:14;22.00;1.00
14057;DHT22;7103;54.300;10.180;2023-07-08T05:59:41;22.40;99.90
14057;DHT22;7103;54.300;10.180;2023-07-08T06:02:11;22.90;99.90
14057;DHT22;7103;54.300;10.180;2023-07-08T06:04:39;23.30;99.90
14057;DHT22;7103;54.300;10.180;2023-07-08T06:07:06;23.80;99.90
14057;DHT22;7103;54.300;10.180;2023-07-08T06:09:33;24.00;99.90
14057;DHT22;7103;54.300;10.180;2023-07-08T06:12:01;24.40;99.90
14057;DHT22;7103;54.300;10.180;2023-07-08T06:14:28;24.70;99.90
14057;DHT22;7103;54.300;10.180;2023-07-08T06:16:57;25.00;99.90
14057;DHT22;7103;54.300;10.180;2023-07-08T06:19:24;25.30;99.90
14057;DHT22;7103;54.300;10.180;2023-07-08T06:21:51;25.20;99.90
14057;DHT22;7103;54.300;10.180;2023-07-08T06:24:18;25.20;99.90
14057;DHT22;7103;54.300;10.180;2023-07-08T06:26:45;25.50;99.90
14057;DHT22;7103;54.300;10.180;2023-07-08T06:29:25;25.70;99.90
14057;DHT22;7103;54.300;10.180;2023-07-08T06:31:52;25.70;99.90
14057;DHT22;7103;54.300;10.180;2023-07-08T06:34:20;26.00;99.90
14057;DHT22;7103;54.300;10.180;2023-07-08T06:36:50;26.00;99.90
14057;DHT22;7103;54.300;10.180;2023-07-08T06:39:18;26.00;99.90
14057;DHT22;7103;54.300;10.180;2023-07-08T06:41:45;26.20;99.90
14057;DHT22;7103;54.300;10.180;2023-07-08T06:44:12;26.30;99.90
14057;DHT22;7103;54.300;10.180;2023-07-08T06:46:40;26.40;99.90
14057;DHT22;7103;54.300;10.180;2023-07-08T06:49:07;26.60;99.90
14057;DHT22;7103;54.300;10.180;2023-07-08T06:51:36;26.60;99.90
14057;DHT22;7103;54.300;10.180;2023-07-08T06:54:03;26.70;99.90
14057;DHT22;7103;54.300;10.180;2023-07-08T06:56:31;26.80;99.90
14057;DHT22;7103;54.300;10.180;2023-07-08T06:58:58;27.20;99.90
14057;DHT22;7103;54.300;10.180;2023-07-08T07:01:25;26.60;99.90
14057;DHT22;7103;54.300;10.180;2023-07-08T07:03:52;27.20;99.90
14057;DHT22;7103;54.300;10.180;2023-07-08T07:06:19;27.40;99.90
14057;DHT22;7103;54.300;10.180;2023-07-08T07:08:46;27.70;99.90
14057;DHT22;7103;54.300;10.180;2023-07-08T07:11:13;27.70;99.90
14057;DHT22;7103;54.300;10.180;2023-07-08T07:13:40;27.80;99.90
14057;DHT22;7103;54.300;10.180;2023-07-08T07:16:07;27.80;99.90
14057;DHT22;7103;54.300;10.180;2023-07-08T07:18:34;28.00;99.90
14057;DHT22;7103;54.300;10.180;2023-07-08T07:21:01;28.10;99.90
14057;DHT22;7103;54.300;10.180;2023-07-08T07:23:28;28.10;99.90
14057;DHT22;7103;54.300;10.180;2023-07-08T07:25:55;28.40;99.90
14057;DHT22;7103;54.300;10.180;2023-07-08T07:28:24;28.50;99.90
14057;DHT22;7103;54.300;10.180;2023-07-08T07:30:58;28.80;99.90
14057;DHT22;7103;54.300;10.180;2023-07-08T07:33:26;29.00;99.90
14057;DHT22;7103;54.300;10.180;2023-07-08T07:35:53;29.10;99.90
14057;DHT22;7103;54.300;10.180;2023-07-08T07:38:20;29.30;99.90
14057;DHT22;7103;54.300;10.180;2023-07-08T07:40:47;29.70;99.90
14057;DHT22;7103;54.300;10.180;2023-07-08T07:43:14;29.50;99.90
14057;DHT22;7103;54.300;10.180;2023-07-08T07:45:41;29.40;99.90
14057;DHT22;7103;54.300;10.180;2023-07-08T07:48:08;28.80;99.90
14057;DHT22;7103;54.300;10.180;2023-07-08T07:50:35;29.00;99.90
14057;DHT22;7103;54.300;10.180;2023-07-08T07:53:02;29.40;99.90
14057;DHT22;7103;54.300;10.180;2023-07-08T07:55:29;29.70;99.90
14057;DHT22;7103;54.300;10.180;2023-07-08T07:57:56;29.60;99.90
14057;DHT22;7103;54.300;10.180;2023-07-08T08:00:23;29.80;99.90
14057;DHT22;7103;54.300;10.180;2023-07-08T08:02:50;29.80;99.90
14057;DHT22;7103;54.300;10.180;2023-07-08T08:05:17;29.60;99.90
14057;DHT22;7103;54.300;10.180;2023-07-08T08:07:45;29.80;99.90
14057;DHT22;7103;54.300;10.180;2023-07-08T08:10:14;29.80;99.90
14057;DHT22;7103;54.300;10.180;2023-07-08T08:12:42;30.00;99.90
14057;DHT22;7103;54.300;10.180;2023-07-08T08:15:21;30.60;99.90
14057;DHT22;7103;54.300;10.180;2023-07-08T08:17:48;30.50;99.90
14057;DHT22;7103;54.300;10.180;2023-07-08T08:20:23;30.50;99.90
14057;DHT22;7103;54.300;10.180;2023-07-08T08:22:51;30.80;99.90
14057;DHT22;7103;54.300;10.180;2023-07-08T08:25:20;31.00;99.90
14057;DHT22;7103;54.300;10.180;2023-07-08T08:27:48;31.30;99.90
14057;DHT22;7103;54.300;10.180;2023-07-08T08:30:15;31.70;99.90
14057;DHT22;7103;54.300;10.180;2023-07-08T08:32:42;31.70;99.90
14057;DHT22;7103;54.300;10.180;2023-07-08T08:35:09;31.70;99.90
14057;DHT22;7103;54.300;10.180;2023-07-08T08:37:36;31.30;99.90
14057;DHT22;7103;54.300;10.180;2023-07-08T08:40:03;31.50;99.90
14057;DHT22;7103;54.300;10.180;2023-07-08T08:42:39;31.30;99.90
14057;DHT22;7103;54.300;10.180;2023-07-08T08:45:11;31.70;99.90
14057;DHT22;7103;54.300;10.180;2023-07-08T08:47:46;31.70;99.90
14057;DHT22;7103;54.300;10.180;2023-07-08T08:50:28;31.90;99.90
14057;DHT22;7103;54.300;10.180;2023-07-08T08:52:57;32.20;99.90
14057;DHT22;7103;54.300;10.180;2023-07-08T08:55:26;32.30;99.90
14057;DHT22;7103;54.300;10.180;2023-07-08T09:01:06;32.50;99.90
14057;DHT22;7103;54.300;10.180;2023-07-08T09:03:47;32.80;99.90
14057;DHT22;7103;54.300;10.180;2023-07-08T09:06:30;32.80;99.90
14057;DHT22;7103;54.300;10.180;2023-07-08T09:09:02;32.70;99.90
14057;DHT22;7103;54.300;10.180;2023-07-08T09:14:20;31.20;99.90
14057;DHT22;7103;54.300;10.180;2023-07-08T09:27:45;32.90;99.90
14057;DHT22;7103;54.300;10.180;2023-07-08T09:30:15;32.50;99.90
14057;DHT22;7103;54.300;10.180;2023-07-08T09:32:42;32.10;99.90
14057;DHT22;7103;54.300;10.180;2023-07-08T09:35:22;32.30;99.90
14057;DHT22;7103;54.300;10.180;2023-07-08T09:37:50;32.70;99.90
14057;DHT22;7103;54.300;10.180;2023-07-08T09:42:46;31.60;99.90
14057;DHT22;7103;54.300;10.180;2023-07-08T09:45:20;31.10;99.90
14057;DHT22;7103;54.300;10.180;2023-07-08T09:47:52;30.80;99.90
14057;DHT22;7103;54.300;10.180;2023-07-08T09:50:22;31.40;99.90
14057;DHT22;7103;54.300;10.180;2023-07-08T09:52:52;31.70;99.90
14057;DHT22;7103;54.300;10.180;2023-07-08T09:55:23;31.40;99.90
14057;DHT22;7103;54.300;10.180;2023-07-08T09:57:52;31.00;99.90
14057;DHT22;7103;54.300;10.180;2023-07-08T10:00:28;31.30;99.90
14057;DHT22;7103;54.300;10.180;2023-07-08T10:02:57;31.10;99.90
14057;DHT22;7103;54.300;10.180;2023-07-08T10:05:38;31.20;99.90
14057;DHT22;7103;54.300;10.180;2023-07-08T10:08:19;31.20;99.90
14057;DHT22;7103;54.300;10.180;2023-07-08T10:10:50;31.50;99.90
14057;DHT22;7103;54.300;10.180;2023-07-08T10:13:42;31.60;99.90
14057;DHT22;7103;54.300;10.180;2023-07-08T10:16:26;31.20;99.90
14057;DHT22;7103;54.300;10.180;2023-07-08T10:18:54;30.60;99.90
14057;DHT22;7103;54.300;10.180;2023-07-08T10:29:54;32.20;99.90
14057;DHT22;7103;54.300;10.180;2023-07-08T10:40:09;31.20;99.90
14057;DHT22;7103;54.300;10.180;2023-07-08T10:53:50;30.60;99.90
14057;DHT22;7103;54.300;10.180;2023-07-08T10:56:58;30.50;99.90
14057;DHT22;7103;54.300;10.180;2023-07-08T11:07:46;30.80;99.90
14057;DHT22;7103;54.300;10.180;2023-07-08T11:10:23;31.50;99.90
14057;DHT22;7103;54.300;10.180;2023-07-08T11:15:40;30.20;99.90
14057;DHT22;7103;54.300;10.180;2023-07-08T11:18:33;30.30;99.90
14057;DHT22;7103;54.300;10.180;2023-07-08T11:21:04;30.10;99.90
14057;DHT22;7103;54.300;10.180;2023-07-08T11:23:40;30.00;99.90
14057;DHT22;7103;54.300;10.180;2023-07-08T11:29:03;30.10;99.90
14057;DHT22;7103;54.300;10.180;2023-07-08T11:31:32;30.20;99.90
14057;DHT22;7103;54.300;10.180;2023-07-08T11:34:00;30.50;99.90
14057;DHT22;7103;54.300;10.180;2023-07-08T11:36:28;30.70;99.90
14057;DHT22;7103;54.300;10.180;2023-07-08T11:38:57;30.80;99.90
14057;DHT22;7103;54.300;10.180;2023-07-08T11:41:26;30.80;99.90
14057;DHT22;7103;54.300;10.180;2023-07-08T11:43:59;30.90;99.90
14057;DHT22;7103;54.300;10.180;2023-07-08T11:46:29;30.80;99.90
14057;DHT22;7103;54.300;10.180;2023-07-08T11:49:04;31.00;99.90
14057;DHT22;7103;54.300;10.180;2023-07-08T11:51:34;31.10;99.90
14057;DHT22;7103;54.300;10.180;2023-07-08T11:56:57;30.50;99.90
14057;DHT22;7103;54.300;10.180;2023-07-08T11:59:29;29.80;99.90
14057;DHT22;7103;54.300;10.180;2023-07-08T12:02:19;30.30;99.90
14057;DHT22;7103;54.300;10.180;2023-07-08T12:05:02;30.10;99.90
14057;DHT22;7103;54.300;10.180;2023-07-08T12:07:46;29.80;99.90
14057;DHT22;7103;54.300;10.180;2023-07-08T12:10:23;30.40;99.90
14057;DHT22;7103;54.300;10.180;2023-07-08T12:12:52;30.60;99.90
14057;DHT22;7103;54.300;10.180;2023-07-08T12:15:24;30.00;99.90
14057;DHT22;7103;54.300;10.180;2023-07-08T12:18:15;29.70;99.90
14057;DHT22;7103;54.300;10.180;2023-07-08T12:20:46;29.70;99.90
14057;DHT22;7103;54.300;10.180;2023-07-08T12:23:23;30.00;99.90
14057;DHT22;7103;54.300;10.180;2023-07-08T12:25:51;30.10;99.90
14057;DHT22;7103;54.300;10.180;2023-07-08T12:28:19;30.00;99.90
14057;DHT22;7103;54.300;10.180;2023-07-08T12:30:47;30.00;99.90
14057;DHT22;7103;54.300;10.180;2023-07-08T12:33:19;29.70;99.90
14057;DHT22;7103;54.300;10.180;2023-07-08T12:35:48;29.60;99.90
14057;DHT22;7103;54.300;10.180;2023-07-08T12:38:18;29.90;99.90
14057;DHT22;7103;54.300;10.180;2023-07-08T12:40:45;30.10;99.90
14057;DHT22;7103;54.300;10.180;2023-07-08T12:43:13;30.10;99.90
14057;DHT22;7103;54.300;10.180;2023-07-08T12:45:41;29.70;99.90
14057;DHT22;7103;54.300;10.180;2023-07-08T12:48:09;29.60;99.90
14057;DHT22;7103;54.300;10.180;2023-07-08T12:50:37;29.50;99.90
14057;DHT22;7103;54.300;10.180;2023-07-08T12:53:05;29.50;99.90
14057;DHT22;7103;54.300;10.180;2023-07-08T12:55:38;29.80;99.90
14057;DHT22;7103;54.300;10.180;2023-07-08T12:58:05;29.80;99.90
14057;DHT22;7103;54.300;10.180;2023-07-08T13:00:39;29.50;99.90
14057;DHT22;7103;54.300;10.180;2023-07-08T13:03:22;29.80;99.90
14057;DHT22;7103;54.300;10.180;2023-07-08T13:05:52;30.00;99.90
14057;DHT22;7103;54.300;10.180;2023-07-08T13:08:22;29.90;99.90
14057;DHT22;7103;54.300;10.180;2023-07-08T13:10:54;29.70;99.90
14057;DHT22;7103;54.300;10.180;2023-07-08T13:13:25;29.80;99.90
14057;DHT22;7103;54.300;10.180;2023-07-08T13:15:53;30.00;99.90
14057;DHT22;7103;54.300;10.180;2023-07-08T13:18:35;30.10;99.90
14057;DHT22;7103;54.300;10.180;2023-07-08T13:21:04;30.00;99.90
14057;DHT22;7103;54.300;10.180;2023-07-08T13:23:32;29.90;99.90
14057;DHT22;7103;54.300;10.180;2023-07-08T13:26:10;29.60;99.90
14057;DHT22;7103;54.300;10.180;2023-07-08T13:28:38;29.70;99.90
14057;DHT22;7103;54.300;10.180;2023-07-08T13:31:24;29.70;99.90
14057;DHT22;7103;54.300;10.180;2023-07-08T13:34:08;29.80;99.90
14057;DHT22;7103;54.300;10.180;2023-07-08T13:36:38;29.50;99.90
14057;DHT22;7103;54.300;10.180;2023-07-08T13:39:09;28.90;99.90
14057;DHT22;7103;54.300;10.180;2023-07-08T13:41:45;29.00;99.90
14057;DHT22;7103;54.300;10.180;2023-07-08T13:44:12;29.00;99.90
14057;DHT22;7103;54.300;10.180;2023-07-08T13:46:51;29.00;99.90
14057;DHT22;7103;54.300;10.180;2023-07-08T13:51:51;29.50;99.90
14057;DHT22;7103;54.300;10.180;2023-07-08T13:54:20;29.40;99.90
14057;DHT22;7103;54.300;10.180;2023-07-08T13:56:49;29.20;99.90
14057;DHT22;7103;54.300;10.180;2023-07-08T13:59:24;29.30;99.90
14057;DHT22;7103;54.300;10.180;2023-07-08T14:01:54;29.40;99.90
14057;DHT22;7103;54.300;10.180;2023-07-08T14:04:32;29.40;99.90
14057;DHT22;7103;54.300;10.180;2023-07-08T14:06:59;29.30;99.90
14057;DHT22;7103;54.300;10.180;2023-07-08T14:09:27;29.40;99.90
14057;DHT22;7103;54.300;10.180;2023-07-08T14:11:54;29.30;99.90
14057;DHT22;7103;54.300;10.180;2023-07-08T14:14:21;29.20;99.90
14057;DHT22;7103;54.300;10.180;2023-07-08T14:16:50;29.00;99.90
14057;DHT22;7103;54.300;10.180;2023-07-08T14:19:22;28.60;99.90
14057;DHT22;7103;54.300;10.180;2023-07-08T14:22:15;28.70;99.90
14057;DHT22;7103;54.300;10.180;2023-07-08T14:24:45;29.00;99.90
14057;DHT22;7103;54.300;10.180;2023-07-08T14:27:12;29.30;99.90
14057;DHT22;7103;54.300;10.180;2023-07-08T14:29:41;29.50;99.90
14057;DHT22;7103;54.300;10.180;2023-07-08T14:32:18;29.70;99.90
14057;DHT22;7103;54.300;10.180;2023-07-08T14:34:57;29.60;99.90
14057;DHT22;7103;54.300;10.180;2023-07-08T14:37:25;29.50;99.90
14057;DHT22;7103;54.300;10.180;2023-07-08T14:39:52;29.50;99.90
14057;DHT22;7103;54.300;10.180;2023-07-08T14:42:19;29.80;99.90
14057;DHT22;7103;54.300;10.180;2023-07-08T14:44:48;30.00;99.90
14057;DHT22;7103;54.300;10.180;2023-07-08T14:47:18;29.90;99.90
14057;DHT22;7103;54.300;10.180;2023-07-08T14:49:46;29.70;99.90
14057;DHT22;7103;54.300;10.180;2023-07-08T14:52:13;29.80;99.90
14057;DHT22;7103;54.300;10.180;2023-07-08T14:54:40;29.60;99.90
14057;DHT22;7103;54.300;10.180;2023-07-08T14:57:09;29.70;99.90
14057;DHT22;7103;54.300;10.180;2023-07-08T14:59:37;29.70;99.90
14057;DHT22;7103;54.300;10.180;2023-07-08T15:02:24;29.50;99.90
14057;DHT22;7103;54.300;10.180;2023-07-08T15:04:51;28.80;99.90
14057;DHT22;7103;54.300;10.180;2023-07-08T15:07:20;28.80;99.90
14057;DHT22;7103;54.300;10.180;2023-07-08T15:09:47;28.80;99.90
14057;DHT22;7103;54.300;10.180;2023-07-08T15:12:14;29.10;99.90
14057;DHT22;7103;54.300;10.180;2023-07-08T15:14:41;29.30;99.90
14057;DHT22;7103;54.300;10.180;2023-07-08T15:17:13;28.90;99.90
14057;DHT22;7103;54.300;10.180;2023-07-08T15:19:44;28.80;99.90
14057;DHT22;7103;54.300;10.180;2023-07-08T15:22:11;28.50;99.90
14057;DHT22;7103;54.300;10.180;2023-07-08T15:24:38;28.80;99.90
14057;DHT22;7103;54.300;10.180;2023-07-08T15:27:05;28.90;99.90
14057;DHT22;7103;54.300;10.180;2023-07-08T15:29:33;28.90;99.90
14057;DHT22;7103;54.300;10.180;2023-07-08T15:32:00;28.80;99.90
14057;DHT22;7103;54.300;10.180;2023-07-08T15:34:27;28.70;99.90
14057;DHT22;7103;54.300;10.180;2023-07-08T15:36:54;28.60;99.90
14057;DHT22;7103;54.300;10.180;2023-07-08T15:39:21;28.40;99.90
14057;DHT22;7103;54.300;10.180;2023-07-08T15:41:49;28.60;99.90
14057;DHT22;7103;54.300;10.180;2023-07-08T15:44:16;28.50;99.90
14057;DHT22;7103;54.300;10.180;2023-07-08T15:46:46;28.50;99.90
14057;DHT22;7103;54.300;10.180;2023-07-08T15:49:22;28.40;99.90
14057;DHT22;7103;54.300;10.180;2023-07-08T15:51:49;28.40;99.90
14057;DHT22;7103;54.300;10.180;2023-07-08T15:54:18;28.20;99.90
14057;DHT22;7103;54.300;10.180;2023-07-08T15:56:48;27.80;99.90
14057;DHT22;7103;54.300;10.180;2023-07-08T15:59:21;27.80;99.90
14057;DHT22;7103;54.300;10.180;2023-07-08T16:01:50;27.90;99.90
14057;DHT22;7103;54.300;10.180;2023-07-08T16:04:32;28.10;99.90
14057;DHT22;7103;54.300;10.180;2023-07-08T16:06:59;28.10;99.90
14057;DHT22;7103;54.300;10.180;2023-07-08T16:09:26;28.20;99.90
14057;DHT22;7103;54.300;10.180;2023-07-08T16:11:53;28.00;99.90
14057;DHT22;7103;54.300;10.180;2023-07-08T16:14:20;28.10;99.90
14057;DHT22;7103;54.300;10.180;2023-07-08T16:16:51;28.20;99.90
14057;DHT22;7103;54.300;10.180;2023-07-08T16:19:18;28.30;99.90
14057;DHT22;7103;54.300;10.180;2023-07-08T16:21:45;28.40;99.90
14057;DHT22;7103;54.300;10.180;2023-07-08T16:24:13;28.30;99.90
14057;DHT22;7103;54.300;10.180;2023-07-08T16:26:40;27.90;99.90
14057;DHT22;7103;54.300;10.180;2023-07-08T16:29:14;27.70;99.90
14057;DHT22;7103;54.300;10.180;2023-07-08T16:31:42;27.60;99.90
14057;DHT22;7103;54.300;10.180;2023-07-08T16:34:10;27.50;99.90
14057;DHT22;7103;54.300;10.180;2023-07-08T16:36:37;27.50;99.90
14057;DHT22;7103;54.300;10.180;2023-07-08T16:39:05;27.40;99.90
14057;DHT22;7103;54.300;10.180;2023-07-08T16:41:34;27.50;99.90
14057;DHT22;7103;54.300;10.180;2023-07-08T16:44:03;27.30;99.90
14057;DHT22;7103;54.300;10.180;2023-07-08T16:46:36;27.20;99.90
14057;DHT22;7103;54.300;10.180;2023-07-08T16:49:03;27.40;99.90
14057;DHT22;7103;54.300;10.180;2023-07-08T16:51:30;27.50;99.90
14057;DHT22;7103;54.300;10.180;2023-07-08T16:54:01;27.60;99.90
14057;DHT22;7103;54.300;10.180;2023-07-08T16:56:35;27.60;99.90
14057;DHT22;7103;54.300;10.180;2023-07-08T16:59:04;27.40;99.90
14057;DHT22;7103;54.300;10.180;2023-07-08T17:01:31;27.20;99.90
14057;DHT22;7103;54.300;10.180;2023-07-08T17:03:59;27.10;99.90
14057;DHT22;7103;54.300;10.180;2023-07-08T17:06:26;27.10;99.90
14057;DHT22;7103;54.300;10.180;2023-07-08T17:08:54;26.70;99.90